createdAt,value
2022-12-20T00:02:10.372Z,0.60
2022-12-20T00:04:41.451Z,0.57
2022-12-20T00:07:12.326Z,0.57
2022-12-20T00:09:43.187Z,0.55
2022-12-20T00:12:13.981Z,0.53
2022-12-20T00:14:44.888Z,0.56
2022-12-20T00:17:15.999Z,0.56
2022-12-20T00:19:46.837Z,0.56
2022-12-20T00:22:17.531Z,0.53
2022-12-20T00:24:48.371Z,0.51
2022-12-20T00:27:19.257Z,0.52
2022-12-20T00:29:50.100Z,0.53
2022-12-20T00:32:20.970Z,0.52
2022-12-20T00:34:51.862Z,0.53
2022-12-20T00:37:22.575Z,0.52
2022-12-20T00:39:53.360Z,0.47
2022-12-20T00:42:24.146Z,0.41
2022-12-20T00:44:54.900Z,0.37
2022-12-20T00:47:25.807Z,0.35
2022-12-20T00:49:56.717Z,0.37
2022-12-20T00:52:27.562Z,0.39
2022-12-20T00:54:58.432Z,0.42
2022-12-20T00:57:29.238Z,0.43
2022-12-20T01:00:00.066Z,0.46
2022-12-20T01:02:30.999Z,0.45
2022-12-20T01:05:03.295Z,0.44
2022-12-20T01:07:34.247Z,0.45
2022-12-20T01:10:05.176Z,0.46
2022-12-20T01:12:35.978Z,0.45
2022-12-20T01:15:08.065Z,0.44
2022-12-20T01:17:38.813Z,0.42
2022-12-20T01:20:10.660Z,0.42
2022-12-20T01:22:47.353Z,0.42
2022-12-20T01:25:18.829Z,0.42
2022-12-20T01:27:49.819Z,0.41
2022-12-20T01:30:20.706Z,0.42
2022-12-20T01:32:51.495Z,0.43
2022-12-20T01:35:22.263Z,0.43
2022-12-20T01:37:53.207Z,0.40
2022-12-20T01:40:23.981Z,0.37
2022-12-20T01:42:54.673Z,0.34
2022-12-20T01:45:27.454Z,0.30
2022-12-20T01:47:58.559Z,0.26
2022-12-20T01:50:29.551Z,0.27
2022-12-20T01:53:00.366Z,0.26
2022-12-20T01:55:31.114Z,0.24
2022-12-20T01:58:02.457Z,0.19
2022-12-20T02:00:33.222Z,0.14
2022-12-20T02:03:05.459Z,0.11
2022-12-20T02:05:37.262Z,0.03
2022-12-20T02:08:08.200Z,-0.02
2022-12-20T02:10:42.397Z,-0.07
2022-12-20T02:13:14.227Z,-0.14
2022-12-20T02:15:46.832Z,-0.09
2022-12-20T02:18:20.798Z,-0.06
2022-12-20T02:21:09.030Z,-0.09
2022-12-20T02:23:50.772Z,-0.15
2022-12-20T02:26:26.598Z,-0.15
2022-12-20T02:29:02.587Z,-0.11
2022-12-20T02:31:34.779Z,-0.07
2022-12-20T02:34:05.815Z,-0.04
2022-12-20T02:36:36.686Z,-0.01
2022-12-20T02:39:07.491Z,0.01
2022-12-20T02:41:38.805Z,-0.01
2022-12-20T02:44:28.438Z,-0.05
2022-12-20T02:46:59.894Z,-0.07
2022-12-20T02:49:31.472Z,-0.09
2022-12-20T02:52:02.395Z,-0.10
2022-12-20T02:54:33.216Z,-0.10
2022-12-20T02:57:06.175Z,-0.13
2022-12-20T02:59:37.908Z,-0.18
2022-12-20T03:02:08.837Z,-0.21
2022-12-20T03:04:40.872Z,-0.25
2022-12-20T03:07:13.168Z,-0.27
2022-12-20T03:09:45.377Z,-0.26
2022-12-20T03:12:17.500Z,-0.27
2022-12-20T03:14:48.229Z,-0.35
2022-12-20T03:17:18.990Z,-0.41
2022-12-20T03:19:50.090Z,-0.40
2022-12-20T03:22:21.881Z,-0.36
2022-12-20T03:24:53.494Z,-0.27
2022-12-20T03:27:26.264Z,-0.17
2022-12-20T03:29:57.759Z,-0.09
2022-12-20T03:32:29.165Z,-0.04
2022-12-20T03:35:00.655Z,0.02
2022-12-20T03:43:47.260Z,0.19
2022-12-20T03:46:18.094Z,0.25
2022-12-20T03:48:48.919Z,0.35
2022-12-20T03:51:19.634Z,0.41
2022-12-20T03:53:50.675Z,0.44
2022-12-20T03:56:21.562Z,0.42
2022-12-20T03:58:52.496Z,0.35
2022-12-20T04:01:24.344Z,0.29
2022-12-20T04:03:55.464Z,0.21
2022-12-20T04:06:26.373Z,0.12
2022-12-20T04:08:57.178Z,0.02
2022-12-20T04:11:27.933Z,-0.05
2022-12-20T04:13:58.737Z,-0.14
2022-12-20T04:16:30.487Z,-0.22
2022-12-20T04:19:01.353Z,-0.30
2022-12-20T04:21:32.954Z,-0.32
2022-12-20T04:24:04.646Z,-0.35
2022-12-20T04:26:35.393Z,-0.37
2022-12-20T04:29:06.248Z,-0.37
2022-12-20T04:31:37.215Z,-0.39
2022-12-20T04:34:08.243Z,-0.39
2022-12-20T04:36:38.995Z,-0.40
2022-12-20T04:39:09.840Z,-0.40
2022-12-20T04:41:40.638Z,-0.41
2022-12-20T04:44:11.531Z,-0.42
2022-12-20T04:46:42.252Z,-0.43
2022-12-20T04:49:13.092Z,-0.43
2022-12-20T04:51:43.957Z,-0.44
2022-12-20T04:59:31.241Z,-0.47
2022-12-20T05:02:02.137Z,-0.50
2022-12-20T05:04:37.471Z,-0.54
2022-12-20T05:07:08.851Z,-0.60
2022-12-20T05:09:39.640Z,-0.65
2022-12-20T05:12:10.580Z,-0.63
2022-12-20T05:14:41.539Z,-0.61
2022-12-20T05:17:12.312Z,-0.57
2022-12-20T05:19:45.209Z,-0.54
2022-12-20T05:22:33.532Z,-0.53
2022-12-20T05:25:22.165Z,-0.51
2022-12-20T05:27:52.967Z,-0.51
2022-12-20T05:30:24.017Z,-0.50
2022-12-20T05:32:54.861Z,-0.50
2022-12-20T05:35:25.672Z,-0.49
2022-12-20T05:37:56.440Z,-0.48
2022-12-20T05:40:27.145Z,-0.49
2022-12-20T05:42:57.926Z,-0.49
2022-12-20T05:45:28.597Z,-0.50
2022-12-20T05:47:59.304Z,-0.53
2022-12-20T05:50:30.048Z,-0.58
2022-12-20T05:53:04.609Z,-0.60
2022-12-20T05:55:40.909Z,-0.62
2022-12-20T05:58:13.492Z,-0.65
2022-12-20T06:00:44.708Z,-0.66
2022-12-20T06:03:17.436Z,-0.62
2022-12-20T06:05:48.212Z,-0.58
2022-12-20T06:08:18.957Z,-0.54
2022-12-20T06:10:49.600Z,-0.51
2022-12-20T06:13:20.501Z,-0.49
2022-12-20T06:15:51.285Z,-0.47
2022-12-20T06:18:22.066Z,-0.46
2022-12-20T06:20:52.962Z,-0.47
2022-12-20T06:23:23.631Z,-0.49
2022-12-20T06:25:55.463Z,-0.45
2022-12-20T06:28:26.483Z,-0.41
2022-12-20T06:31:00.961Z,-0.39
2022-12-20T06:33:31.782Z,-0.43
2022-12-20T06:36:02.848Z,-0.44
2022-12-20T06:38:33.840Z,-0.41
2022-12-20T06:41:04.769Z,-0.47
2022-12-20T06:43:35.928Z,-0.55
2022-12-20T06:46:06.886Z,-0.55
2022-12-20T06:48:37.947Z,-0.55
2022-12-20T06:51:08.634Z,-0.51
2022-12-20T06:53:39.352Z,-0.44
2022-12-20T06:56:10.275Z,-0.35
2022-12-20T06:58:40.998Z,-0.32
2022-12-20T07:01:15.320Z,-0.34
2022-12-20T07:03:46.244Z,-0.34
2022-12-20T07:06:17.102Z,-0.36
2022-12-20T07:08:48.102Z,-0.38
2022-12-20T07:11:18.975Z,-0.35
2022-12-20T07:13:50.471Z,-0.34
2022-12-20T07:16:21.568Z,-0.33
2022-12-20T07:18:52.784Z,-0.37
2022-12-20T07:21:24.015Z,-0.40
2022-12-20T07:23:57.617Z,-0.36
2022-12-20T07:26:29.040Z,-0.36
2022-12-20T07:28:59.916Z,-0.28
2022-12-20T07:31:30.797Z,-0.15
2022-12-20T07:34:01.659Z,-0.11
2022-12-20T07:36:32.511Z,-0.07
2022-12-20T07:39:03.370Z,0.02
2022-12-20T07:41:34.513Z,0.09
2022-12-20T07:44:06.476Z,0.13
2022-12-20T07:46:37.439Z,0.08
2022-12-20T07:49:10.606Z,0.03
2022-12-20T07:51:43.612Z,0.03
2022-12-20T07:54:15.325Z,-0.04
2022-12-20T07:56:47.241Z,-0.11
2022-12-20T07:59:19.004Z,-0.08
2022-12-20T08:01:50.049Z,-0.07
2022-12-20T08:04:21.536Z,-0.09
2022-12-20T08:06:52.411Z,-0.11
2022-12-20T08:09:23.160Z,-0.10
2022-12-20T08:11:54.033Z,-0.07
2022-12-20T08:14:24.827Z,-0.04
2022-12-20T08:16:55.807Z,0.01
2022-12-20T08:19:31.973Z,-0.02
2022-12-20T08:22:03.755Z,0.01
2022-12-20T08:24:34.602Z,0.04
2022-12-20T08:27:05.404Z,0.05
2022-12-20T08:29:36.185Z,0.11
2022-12-20T08:32:07.143Z,0.18
2022-12-20T08:34:38.007Z,0.20
2022-12-20T08:37:14.591Z,0.19
2022-12-20T08:39:46.387Z,0.16
2022-12-20T08:42:17.119Z,0.21
2022-12-20T08:44:47.961Z,0.29
2022-12-20T08:47:18.557Z,0.30
2022-12-20T08:49:49.488Z,0.27
2022-12-20T08:52:20.440Z,0.26
2022-12-20T08:54:51.357Z,0.26
2022-12-20T08:57:22.124Z,0.30
2022-12-20T08:59:52.903Z,0.37
2022-12-20T09:02:23.619Z,0.41
2022-12-20T09:04:54.797Z,0.47
2022-12-20T09:07:25.398Z,0.57
2022-12-20T09:09:56.074Z,0.66
2022-12-20T09:12:26.823Z,0.75
2022-12-20T09:14:57.685Z,0.82
2022-12-20T09:17:28.495Z,0.89
2022-12-20T09:19:59.157Z,0.84
2022-12-20T09:22:31.268Z,0.77
2022-12-20T09:25:02.116Z,0.78
2022-12-20T09:27:32.899Z,0.83
2022-12-20T09:30:03.712Z,0.88
2022-12-20T09:32:34.530Z,1.01
2022-12-20T09:35:05.427Z,1.17
2022-12-20T09:37:36.201Z,1.31
2022-12-20T09:40:09.519Z,1.42
2022-12-20T09:42:40.358Z,1.48
2022-12-20T09:45:13.387Z,1.56
2022-12-20T09:47:44.383Z,1.63
2022-12-20T09:50:16.891Z,1.72
2022-12-20T09:52:52.504Z,1.81
2022-12-20T09:55:25.777Z,1.91
2022-12-20T09:58:00.099Z,2.04
2022-12-20T10:00:31.643Z,2.20
2022-12-20T10:03:09.320Z,2.42
2022-12-20T10:05:44.089Z,2.69
2022-12-20T10:08:17.553Z,3.01
2022-12-20T10:10:51.843Z,3.32
2022-12-20T10:13:27.346Z,3.59
2022-12-20T10:15:59.562Z,3.85
2022-12-20T10:18:34.480Z,3.98
2022-12-20T10:21:06.630Z,4.11
2022-12-20T10:23:39.021Z,4.29
2022-12-20T10:26:11.961Z,4.47
2022-12-20T10:28:42.856Z,4.49
2022-12-20T10:31:15.584Z,4.42
2022-12-20T10:33:46.729Z,4.36
2022-12-20T10:36:21.822Z,4.35
2022-12-20T10:38:53.258Z,4.42
2022-12-20T10:41:24.917Z,4.40
2022-12-20T10:43:58.029Z,4.28
2022-12-20T10:46:38.085Z,4.20
2022-12-20T10:49:28.941Z,4.17
2022-12-20T10:52:00.235Z,4.10
2022-12-20T10:54:35.817Z,3.98
2022-12-20T10:57:20.178Z,3.86
2022-12-20T10:59:52.408Z,3.82
2022-12-20T11:02:28.331Z,3.80
2022-12-20T11:05:03.967Z,3.82
2022-12-20T11:07:35.926Z,3.84
2022-12-20T11:10:18.721Z,3.83
2022-12-20T11:12:55.401Z,3.79
2022-12-20T11:15:34.635Z,3.74
2022-12-20T11:18:09.386Z,3.63
2022-12-20T11:20:43.492Z,3.54
2022-12-20T11:23:32.697Z,3.53
2022-12-20T11:26:14.115Z,3.52
2022-12-20T11:29:13.613Z,3.50
2022-12-20T11:32:00.258Z,3.50
2022-12-20T11:34:44.031Z,3.50
2022-12-20T11:37:20.865Z,3.62
2022-12-20T11:40:00.252Z,3.80
2022-12-20T11:42:33.783Z,3.97
2022-12-20T11:45:09.737Z,4.13
2022-12-20T11:47:56.021Z,4.26
2022-12-20T11:50:38.007Z,4.30
2022-12-20T11:53:09.341Z,4.47
2022-12-20T11:55:41.965Z,4.52
2022-12-20T11:58:19.321Z,4.55
2022-12-20T12:00:54.065Z,4.65
2022-12-20T12:03:27.288Z,4.70
2022-12-20T12:05:59.167Z,4.69
2022-12-20T12:08:31.627Z,4.61
2022-12-20T12:11:03.416Z,4.57
2022-12-20T12:13:34.988Z,4.47
2022-12-20T12:16:07.470Z,4.45
2022-12-20T12:18:40.135Z,4.45
2022-12-20T12:21:12.610Z,4.43
2022-12-20T12:23:47.845Z,4.28
2022-12-20T12:26:29.402Z,4.24
2022-12-20T12:29:01.168Z,4.21
2022-12-20T12:31:33.368Z,4.17
2022-12-20T12:34:06.604Z,4.10
2022-12-20T12:36:44.128Z,4.03
2022-12-20T12:39:34.458Z,3.96
2022-12-20T12:42:37.164Z,3.99
2022-12-20T12:45:08.411Z,4.03
2022-12-20T12:47:39.962Z,4.05
2022-12-20T12:50:11.697Z,4.04
2022-12-20T12:52:47.462Z,4.02
2022-12-20T12:55:35.362Z,3.96
2022-12-20T12:58:16.158Z,3.91
2022-12-20T13:00:53.734Z,3.92
2022-12-20T13:03:38.916Z,3.79
2022-12-20T13:06:33.985Z,3.62
2022-12-20T13:09:19.517Z,3.50
2022-12-20T13:11:57.407Z,3.43
2022-12-20T13:14:51.441Z,3.44
2022-12-20T13:17:35.537Z,3.42
2022-12-20T13:20:17.257Z,3.40
2022-12-20T13:23:01.511Z,3.35
2022-12-20T13:25:32.580Z,3.28
2022-12-20T13:28:17.254Z,3.24
2022-12-20T13:30:48.179Z,3.28
2022-12-20T13:33:23.164Z,3.22
2022-12-20T13:36:00.161Z,3.14
2022-12-20T13:38:42.015Z,3.10
2022-12-20T13:41:17.767Z,3.02
2022-12-20T13:43:48.564Z,2.99
2022-12-20T13:46:23.315Z,2.97
2022-12-20T13:48:55.696Z,2.93
2022-12-20T13:51:30.551Z,2.92
2022-12-20T13:54:02.364Z,2.91
2022-12-20T13:56:37.792Z,2.87
2022-12-20T13:59:10.039Z,2.79
2022-12-20T14:01:41.439Z,2.78
2022-12-20T14:04:12.876Z,2.79
2022-12-20T14:06:55.645Z,2.84
2022-12-20T14:09:29.875Z,2.83
2022-12-20T14:12:06.478Z,2.87
2022-12-20T14:14:40.834Z,2.93
2022-12-20T14:17:18.764Z,2.97
2022-12-20T14:19:49.725Z,2.97
2022-12-20T14:22:20.557Z,2.97
2022-12-20T14:24:53.809Z,2.99
2022-12-20T14:27:24.654Z,2.98
2022-12-20T14:29:56.422Z,2.99
2022-12-20T14:32:27.322Z,3.00
2022-12-20T14:34:58.097Z,2.98
2022-12-20T14:37:36.394Z,2.92
2022-12-20T14:40:17.074Z,2.88
2022-12-20T14:42:48.296Z,2.84
2022-12-20T14:45:20.577Z,2.78
2022-12-20T14:47:52.644Z,2.73
2022-12-20T14:50:25.660Z,2.72
2022-12-20T14:52:56.751Z,2.72
2022-12-20T14:55:28.978Z,2.68
2022-12-20T14:58:03.994Z,2.67
2022-12-20T15:00:35.872Z,2.68
2022-12-20T15:03:13.045Z,2.69
2022-12-20T15:05:46.354Z,2.65
2022-12-20T15:08:18.553Z,2.55
2022-12-20T15:10:51.283Z,2.48
2022-12-20T15:13:23.157Z,2.49
2022-12-20T15:15:54.146Z,2.54
2022-12-20T15:18:25.668Z,2.57
2022-12-20T15:20:59.823Z,2.57
2022-12-20T15:23:30.644Z,2.57
2022-12-20T15:26:01.571Z,2.54
2022-12-20T15:28:34.317Z,2.50
2022-12-20T15:31:05.986Z,2.46
2022-12-20T15:33:36.956Z,2.46
2022-12-20T15:36:08.040Z,2.45
2022-12-20T15:39:10.603Z,2.44
2022-12-20T15:41:30.304Z,2.43
2022-12-20T15:44:01.385Z,2.42
2022-12-20T15:46:32.161Z,2.42
2022-12-20T15:49:03.004Z,2.43
2022-12-20T15:51:33.977Z,2.38
2022-12-20T15:54:05.768Z,2.33
2022-12-20T15:56:36.470Z,2.30
2022-12-20T15:59:32.510Z,2.28
2022-12-20T16:01:58.037Z,2.23
2022-12-20T16:04:29.951Z,2.22
2022-12-20T16:07:00.851Z,2.26
2022-12-20T16:09:31.521Z,2.27
2022-12-20T16:12:02.224Z,2.24
2022-12-20T16:14:33.019Z,2.21
2022-12-20T16:17:05.300Z,2.22
2022-12-20T16:19:36.298Z,2.22
2022-12-20T16:22:07.091Z,2.24
2022-12-20T16:24:37.833Z,2.24
2022-12-20T16:27:08.647Z,2.24
2022-12-20T16:29:39.487Z,2.18
2022-12-20T16:32:13.058Z,2.18
2022-12-20T16:34:43.841Z,2.18
2022-12-20T16:37:14.811Z,2.24
2022-12-20T16:39:45.787Z,2.33
2022-12-20T16:42:17.149Z,2.40
2022-12-20T16:44:48.229Z,2.45
2022-12-20T16:47:19.186Z,2.43
2022-12-20T16:49:53.418Z,2.42
2022-12-20T16:52:25.210Z,2.41
2022-12-20T16:54:56.090Z,2.40
2022-12-20T16:57:26.864Z,2.39
2022-12-20T16:59:57.732Z,2.33
2022-12-20T17:02:29.417Z,2.25
2022-12-20T17:05:01.164Z,2.17
2022-12-20T17:07:39.571Z,2.10
2022-12-20T17:10:12.776Z,1.96
2022-12-20T17:12:43.449Z,1.91
2022-12-20T17:15:18.138Z,1.87
2022-12-20T17:17:49.100Z,1.85
2022-12-20T17:20:21.742Z,1.83
2022-12-20T17:22:53.619Z,1.82
2022-12-20T17:25:27.325Z,1.77
2022-12-20T17:27:58.129Z,1.70
2022-12-20T17:30:28.807Z,1.61
2022-12-20T17:32:59.601Z,1.55
2022-12-20T17:35:31.224Z,1.47
2022-12-20T17:38:02.897Z,1.44
2022-12-20T17:40:33.578Z,1.39
2022-12-20T17:43:04.356Z,1.34
2022-12-20T17:45:36.364Z,1.24
2022-12-20T17:48:08.819Z,1.15
2022-12-20T17:50:40.073Z,1.08
2022-12-20T17:53:11.602Z,0.97
2022-12-20T17:55:42.601Z,0.89
2022-12-20T17:58:13.345Z,0.90
2022-12-20T18:00:44.008Z,0.94
2022-12-20T18:03:45.159Z,1.02
2022-12-20T18:06:09.611Z,1.04
2022-12-20T18:08:40.520Z,1.01
2022-12-20T18:11:11.193Z,0.95
2022-12-20T18:13:45.088Z,0.86
2022-12-20T18:16:16.715Z,0.82
2022-12-20T18:18:47.445Z,0.80
2022-12-20T18:21:18.624Z,0.83
2022-12-20T18:23:49.443Z,0.80
2022-12-20T18:26:20.950Z,0.76
2022-12-20T18:28:53.930Z,0.71
2022-12-20T18:31:26.173Z,0.70
2022-12-20T18:33:58.293Z,0.72
2022-12-20T18:36:30.154Z,0.75
2022-12-20T18:39:01.032Z,0.79
2022-12-20T18:41:32.120Z,0.82
2022-12-20T18:44:04.979Z,0.86
2022-12-20T18:46:39.566Z,0.87
2022-12-20T18:49:10.857Z,0.75
2022-12-20T18:51:41.914Z,0.59
2022-12-20T18:54:13.851Z,0.51
2022-12-20T18:56:44.577Z,0.49
2022-12-20T18:59:15.786Z,0.49
2022-12-20T19:01:46.845Z,0.51
2022-12-20T19:04:24.093Z,0.46
2022-12-20T19:06:55.597Z,0.35
2022-12-20T19:09:26.529Z,0.34
2022-12-20T19:11:58.122Z,0.39
2022-12-20T19:14:28.916Z,0.49
2022-12-20T19:16:59.746Z,0.63
2022-12-20T19:19:30.691Z,0.74
2022-12-20T19:22:01.631Z,0.80
2022-12-20T19:24:34.133Z,0.74
2022-12-20T19:27:10.738Z,0.66
2022-12-20T19:29:43.916Z,0.53
2022-12-20T19:32:14.775Z,0.43
2022-12-20T19:34:46.239Z,0.45
2022-12-20T19:37:18.409Z,0.49
2022-12-20T19:40:20.323Z,0.49
2022-12-20T19:43:07.406Z,0.49
2022-12-20T19:46:29.114Z,0.47
2022-12-20T19:49:26.131Z,0.47
2022-12-20T19:52:20.648Z,0.54
2022-12-20T19:54:54.282Z,0.59
2022-12-20T19:57:25.040Z,0.64
2022-12-20T19:59:56.455Z,0.61
2022-12-20T20:02:27.562Z,0.56
2022-12-20T20:04:58.852Z,0.46
2022-12-20T20:07:29.560Z,0.45
2022-12-20T20:10:00.401Z,0.51
2022-12-20T20:12:31.174Z,0.47
2022-12-20T20:15:02.037Z,0.47
2022-12-20T20:17:32.864Z,0.48
2022-12-20T20:20:03.700Z,0.42
2022-12-20T20:22:34.429Z,0.39
2022-12-20T20:25:05.385Z,0.39
2022-12-20T20:27:36.049Z,0.42
2022-12-20T20:30:11.283Z,0.47
2022-12-20T20:32:42.185Z,0.53
2022-12-20T20:35:12.989Z,0.59
2022-12-20T20:37:43.908Z,0.64
2022-12-20T20:40:15.635Z,0.55
2022-12-20T20:42:46.337Z,0.44
2022-12-20T20:45:17.607Z,0.27
2022-12-20T20:47:48.249Z,0.15
2022-12-20T20:50:18.997Z,0.13
2022-12-20T20:52:49.723Z,0.14
2022-12-20T20:55:20.515Z,0.16
2022-12-20T20:57:51.300Z,0.14
2022-12-20T21:00:22.379Z,0.13
2022-12-20T21:02:53.264Z,0.08
2022-12-20T21:08:15.615Z,0.09
2022-12-20T21:10:46.425Z,0.09
2022-12-20T21:13:17.637Z,0.11
2022-12-20T21:15:48.366Z,0.08
2022-12-20T21:18:19.138Z,0.08
2022-12-20T21:20:50.271Z,0.11
2022-12-20T21:23:21.078Z,0.13
2022-12-20T21:25:57.858Z,0.12
2022-12-20T21:28:28.875Z,0.09
2022-12-20T21:31:02.896Z,0.01
2022-12-20T21:33:33.633Z,-0.09
2022-12-20T21:36:05.728Z,-0.17
2022-12-20T21:38:36.410Z,-0.19
2022-12-20T21:41:08.087Z,-0.18
2022-12-20T21:43:38.804Z,-0.19
2022-12-20T21:46:11.767Z,-0.24
2022-12-20T21:48:43.518Z,-0.29
2022-12-20T21:51:14.903Z,-0.31
2022-12-20T21:53:46.036Z,-0.32
2022-12-20T21:56:16.790Z,-0.31
2022-12-20T21:58:47.563Z,-0.28
2022-12-20T22:01:19.168Z,-0.25
2022-12-20T22:03:52.614Z,-0.29
2022-12-20T22:06:23.265Z,-0.35
2022-12-20T22:08:54.065Z,-0.42
2022-12-20T22:11:24.694Z,-0.47
2022-12-20T22:13:56.938Z,-0.44
2022-12-20T22:16:29.512Z,-0.45
2022-12-20T22:19:00.726Z,-0.44
2022-12-20T22:21:31.886Z,-0.45
2022-12-20T22:24:02.772Z,-0.52
2022-12-20T22:26:34.477Z,-0.57
2022-12-20T22:29:06.431Z,-0.65
2022-12-20T22:31:37.750Z,-0.69
2022-12-20T22:34:08.512Z,-0.72
2022-12-20T22:36:39.208Z,-0.78
2022-12-20T22:39:10.665Z,-0.79
2022-12-20T22:41:41.771Z,-0.84
2022-12-20T22:44:12.424Z,-0.83
2022-12-20T22:46:43.186Z,-0.79
2022-12-20T22:49:17.238Z,-0.81
2022-12-20T22:52:02.459Z,-0.82
2022-12-20T22:54:37.341Z,-0.84
2022-12-20T22:57:10.456Z,-0.81
2022-12-20T22:59:41.257Z,-0.86
2022-12-20T23:02:12.120Z,-0.89
2022-12-20T23:04:43.209Z,-1.00
2022-12-20T23:07:13.809Z,-1.11
2022-12-20T23:09:44.485Z,-1.15
2022-12-20T23:12:32.819Z,-1.27
2022-12-20T23:15:21.150Z,-1.41
2022-12-20T23:17:51.856Z,-1.45
2022-12-20T23:20:40.208Z,-1.44
2022-12-20T23:23:10.862Z,-1.44
2022-12-20T23:25:42.110Z,-1.38
2022-12-20T23:28:12.757Z,-1.40
2022-12-20T23:30:43.379Z,-1.41
2022-12-20T23:33:14.010Z,-1.41
2022-12-20T23:35:45.241Z,-1.43
2022-12-20T23:38:16.007Z,-1.46
2022-12-20T23:40:46.617Z,-1.45
2022-12-20T23:43:17.750Z,-1.43
2022-12-20T23:45:48.378Z,-1.40
2022-12-20T23:48:19.171Z,-1.42
2022-12-20T23:50:57.371Z,-1.43
2022-12-20T23:53:28.113Z,-1.38
2022-12-20T23:55:59.588Z,-1.35
2022-12-20T23:58:30.341Z,-1.40
